EGHH

Bournemouth Airport

Bournemouth, United Kingdom
METAR EGHH 211320Z 17010KT 140V210 9999 FEW040 24/14 Q1014
Observed Flight Rules
Jul-21 @ 13:20 UTC (18 minutes ago) Visual Flight Rules
Wind Visibility Clouds
170° at 10 knots 10,000+ meters
  • Few at 4,000' AGL
Temperatures Readings
Current 24°C / 75°F
Dewpoint 14°C / 57°F
Humidity 54%
Altimeter 29.94" Hg
Pressure 1014 hPa
Elevation 11
METAR EGHH 211320Z 17010KT 140V210 9999 FEW040 24/14 Q1014
Observed Flight Rules
Jul-21 @ 13:20 UTC
(18 minutes ago)
VFR
Wind Visibility
170° at 10 knots 10,000+ meters
Clouds
  • Few at 4,000' AGL
Temperature Dewpoint
24°C / 75°F 14°C / 57°F
Humidity Altimeter Pressure
54% 29.94" Hg 1014 hPa